sensor_id;sensor_type;location;lat;lon;timestamp;P1;durP1;ratioP1;P2;durP2;ratioP2
9898;SDS011;4988;49.238;6.698;2023-12-20T00:01:15;12.73;;;7.10;;
9898;SDS011;4988;49.238;6.698;2023-12-20T00:03:41;15.67;;;7.30;;
9898;SDS011;4988;49.238;6.698;2023-12-20T00:06:06;13.33;;;6.77;;
9898;SDS011;4988;49.238;6.698;2023-12-20T00:08:31;13.80;;;6.77;;
9898;SDS011;4988;49.238;6.698;2023-12-20T00:10:57;13.90;;;6.63;;
9898;SDS011;4988;49.238;6.698;2023-12-20T00:13:22;12.87;;;6.90;;
9898;SDS011;4988;49.238;6.698;2023-12-20T00:15:47;11.60;;;6.20;;
9898;SDS011;4988;49.238;6.698;2023-12-20T00:18:13;11.50;;;6.10;;
9898;SDS011;4988;49.238;6.698;2023-12-20T00:20:38;11.63;;;6.47;;
9898;SDS011;4988;49.238;6.698;2023-12-20T00:23:03;11.50;;;6.40;;
9898;SDS011;4988;49.238;6.698;2023-12-20T00:25:29;15.33;;;6.83;;
9898;SDS011;4988;49.238;6.698;2023-12-20T00:27:54;11.23;;;6.53;;
9898;SDS011;4988;49.238;6.698;2023-12-20T00:30:19;9.53;;;5.73;;
9898;SDS011;4988;49.238;6.698;2023-12-20T00:32:45;9.17;;;5.83;;
9898;SDS011;4988;49.238;6.698;2023-12-20T00:35:13;11.83;;;5.93;;
9898;SDS011;4988;49.238;6.698;2023-12-20T00:37:39;11.37;;;6.10;;
9898;SDS011;4988;49.238;6.698;2023-12-20T00:40:04;11.27;;;6.10;;
9898;SDS011;4988;49.238;6.698;2023-12-20T00:42:30;10.47;;;6.20;;
9898;SDS011;4988;49.238;6.698;2023-12-20T00:44:55;10.93;;;6.00;;
9898;SDS011;4988;49.238;6.698;2023-12-20T00:47:21;11.50;;;5.93;;
9898;SDS011;4988;49.238;6.698;2023-12-20T00:49:47;11.10;;;6.43;;
9898;SDS011;4988;49.238;6.698;2023-12-20T00:52:12;10.50;;;6.23;;
9898;SDS011;4988;49.238;6.698;2023-12-20T00:54:37;10.00;;;5.57;;
9898;SDS011;4988;49.238;6.698;2023-12-20T00:57:03;10.33;;;5.93;;
9898;SDS011;4988;49.238;6.698;2023-12-20T00:59:28;14.37;;;6.30;;
9898;SDS011;4988;49.238;6.698;2023-12-20T01:01:53;12.10;;;6.20;;
9898;SDS011;4988;49.238;6.698;2023-12-20T01:04:19;10.90;;;6.00;;
9898;SDS011;4988;49.238;6.698;2023-12-20T01:06:44;9.30;;;5.73;;
9898;SDS011;4988;49.238;6.698;2023-12-20T01:09:09;10.00;;;5.13;;
9898;SDS011;4988;49.238;6.698;2023-12-20T01:11:35;8.43;;;4.80;;
9898;SDS011;4988;49.238;6.698;2023-12-20T01:14:00;8.10;;;5.30;;
9898;SDS011;4988;49.238;6.698;2023-12-20T01:16:25;8.27;;;5.27;;
9898;SDS011;4988;49.238;6.698;2023-12-20T01:18:50;8.07;;;5.50;;
9898;SDS011;4988;49.238;6.698;2023-12-20T01:21:16;8.33;;;5.23;;
9898;SDS011;4988;49.238;6.698;2023-12-20T01:23:41;8.30;;;5.00;;
9898;SDS011;4988;49.238;6.698;2023-12-20T01:26:06;8.60;;;5.23;;
9898;SDS011;4988;49.238;6.698;2023-12-20T01:28:32;9.67;;;5.00;;
9898;SDS011;4988;49.238;6.698;2023-12-20T01:30:57;8.83;;;5.30;;
9898;SDS011;4988;49.238;6.698;2023-12-20T01:33:23;8.90;;;5.50;;
9898;SDS011;4988;49.238;6.698;2023-12-20T01:35:48;8.73;;;5.03;;
9898;SDS011;4988;49.238;6.698;2023-12-20T01:38:14;10.00;;;5.90;;
9898;SDS011;4988;49.238;6.698;2023-12-20T01:40:39;8.27;;;5.40;;
9898;SDS011;4988;49.238;6.698;2023-12-20T01:43:08;8.77;;;5.63;;
9898;SDS011;4988;49.238;6.698;2023-12-20T01:45:34;9.73;;;6.20;;
9898;SDS011;4988;49.238;6.698;2023-12-20T01:48:00;8.30;;;5.50;;
9898;SDS011;4988;49.238;6.698;2023-12-20T01:50:27;9.17;;;5.47;;
9898;SDS011;4988;49.238;6.698;2023-12-20T01:52:53;9.70;;;5.67;;
9898;SDS011;4988;49.238;6.698;2023-12-20T01:55:22;8.77;;;5.60;;
9898;SDS011;4988;49.238;6.698;2023-12-20T01:57:49;9.23;;;5.80;;
9898;SDS011;4988;49.238;6.698;2023-12-20T02:00:15;8.20;;;5.40;;
9898;SDS011;4988;49.238;6.698;2023-12-20T02:02:43;10.47;;;5.87;;
9898;SDS011;4988;49.238;6.698;2023-12-20T02:05:10;7.57;;;4.90;;
9898;SDS011;4988;49.238;6.698;2023-12-20T02:07:36;11.33;;;6.70;;
9898;SDS011;4988;49.238;6.698;2023-12-20T02:10:01;8.77;;;5.70;;
9898;SDS011;4988;49.238;6.698;2023-12-20T02:12:27;10.13;;;6.20;;
9898;SDS011;4988;49.238;6.698;2023-12-20T02:14:52;9.63;;;5.93;;
9898;SDS011;4988;49.238;6.698;2023-12-20T02:17:19;10.93;;;6.03;;
9898;SDS011;4988;49.238;6.698;2023-12-20T02:19:44;10.63;;;6.40;;
9898;SDS011;4988;49.238;6.698;2023-12-20T02:22:10;10.10;;;6.77;;
9898;SDS011;4988;49.238;6.698;2023-12-20T02:24:36;11.50;;;7.10;;
9898;SDS011;4988;49.238;6.698;2023-12-20T02:27:01;12.37;;;7.20;;
9898;SDS011;4988;49.238;6.698;2023-12-20T02:29:26;11.23;;;6.97;;
9898;SDS011;4988;49.238;6.698;2023-12-20T02:31:52;11.30;;;6.80;;
9898;SDS011;4988;49.238;6.698;2023-12-20T02:34:17;11.07;;;6.67;;
9898;SDS011;4988;49.238;6.698;2023-12-20T02:36:43;12.97;;;7.97;;
9898;SDS011;4988;49.238;6.698;2023-12-20T02:39:08;14.53;;;7.90;;
9898;SDS011;4988;49.238;6.698;2023-12-20T02:41:33;13.63;;;7.70;;
9898;SDS011;4988;49.238;6.698;2023-12-20T02:43:58;11.10;;;6.33;;
9898;SDS011;4988;49.238;6.698;2023-12-20T02:46:24;12.83;;;7.80;;
9898;SDS011;4988;49.238;6.698;2023-12-20T02:48:49;11.57;;;7.30;;
9898;SDS011;4988;49.238;6.698;2023-12-20T02:51:14;14.07;;;7.37;;
9898;SDS011;4988;49.238;6.698;2023-12-20T02:53:40;12.10;;;7.40;;
9898;SDS011;4988;49.238;6.698;2023-12-20T02:56:05;14.67;;;7.87;;
9898;SDS011;4988;49.238;6.698;2023-12-20T02:58:31;14.77;;;7.43;;
9898;SDS011;4988;49.238;6.698;2023-12-20T03:00:56;16.80;;;7.93;;
9898;SDS011;4988;49.238;6.698;2023-12-20T03:03:21;15.83;;;7.83;;
9898;SDS011;4988;49.238;6.698;2023-12-20T03:05:47;15.37;;;7.67;;
9898;SDS011;4988;49.238;6.698;2023-12-20T03:08:12;13.10;;;7.20;;
9898;SDS011;4988;49.238;6.698;2023-12-20T03:10:37;14.33;;;7.87;;
9898;SDS011;4988;49.238;6.698;2023-12-20T03:13:03;14.70;;;8.00;;
9898;SDS011;4988;49.238;6.698;2023-12-20T03:15:28;16.17;;;8.17;;
9898;SDS011;4988;49.238;6.698;2023-12-20T03:17:53;17.27;;;8.83;;
9898;SDS011;4988;49.238;6.698;2023-12-20T03:20:19;15.90;;;8.40;;
9898;SDS011;4988;49.238;6.698;2023-12-20T03:22:44;15.83;;;8.30;;
9898;SDS011;4988;49.238;6.698;2023-12-20T03:25:09;15.97;;;8.70;;
9898;SDS011;4988;49.238;6.698;2023-12-20T03:27:36;17.03;;;9.40;;
9898;SDS011;4988;49.238;6.698;2023-12-20T03:30:03;17.93;;;9.30;;
9898;SDS011;4988;49.238;6.698;2023-12-20T03:32:29;15.83;;;9.00;;
9898;SDS011;4988;49.238;6.698;2023-12-20T03:34:54;14.87;;;8.23;;
9898;SDS011;4988;49.238;6.698;2023-12-20T03:37:21;15.40;;;8.47;;
9898;SDS011;4988;49.238;6.698;2023-12-20T03:39:46;19.93;;;9.17;;
9898;SDS011;4988;49.238;6.698;2023-12-20T03:42:12;16.27;;;8.43;;
9898;SDS011;4988;49.238;6.698;2023-12-20T03:44:38;16.30;;;7.93;;
9898;SDS011;4988;49.238;6.698;2023-12-20T03:47:05;15.23;;;8.40;;
9898;SDS011;4988;49.238;6.698;2023-12-20T03:49:30;13.60;;;7.37;;
9898;SDS011;4988;49.238;6.698;2023-12-20T03:51:55;14.93;;;7.57;;
9898;SDS011;4988;49.238;6.698;2023-12-20T03:54:21;12.60;;;7.40;;
9898;SDS011;4988;49.238;6.698;2023-12-20T03:56:46;13.20;;;7.40;;
9898;SDS011;4988;49.238;6.698;2023-12-20T03:59:11;12.73;;;7.97;;
9898;SDS011;4988;49.238;6.698;2023-12-20T04:01:36;11.67;;;6.87;;
9898;SDS011;4988;49.238;6.698;2023-12-20T04:04:02;10.50;;;6.33;;
9898;SDS011;4988;49.238;6.698;2023-12-20T04:06:27;11.40;;;6.60;;
9898;SDS011;4988;49.238;6.698;2023-12-20T04:08:53;11.33;;;6.13;;
9898;SDS011;4988;49.238;6.698;2023-12-20T04:11:18;10.17;;;6.27;;
9898;SDS011;4988;49.238;6.698;2023-12-20T04:13:43;9.73;;;6.20;;
9898;SDS011;4988;49.238;6.698;2023-12-20T04:16:09;12.27;;;6.40;;
9898;SDS011;4988;49.238;6.698;2023-12-20T04:18:34;9.03;;;5.63;;
9898;SDS011;4988;49.238;6.698;2023-12-20T04:20:59;9.47;;;5.50;;
9898;SDS011;4988;49.238;6.698;2023-12-20T04:23:24;8.53;;;5.80;;
9898;SDS011;4988;49.238;6.698;2023-12-20T04:25:50;10.27;;;5.60;;
9898;SDS011;4988;49.238;6.698;2023-12-20T04:28:15;8.03;;;5.33;;
9898;SDS011;4988;49.238;6.698;2023-12-20T04:30:41;9.77;;;5.30;;
9898;SDS011;4988;49.238;6.698;2023-12-20T04:33:07;8.13;;;4.60;;
9898;SDS011;4988;49.238;6.698;2023-12-20T04:35:32;7.10;;;4.57;;
9898;SDS011;4988;49.238;6.698;2023-12-20T04:37:57;9.63;;;4.87;;
9898;SDS011;4988;49.238;6.698;2023-12-20T04:40:22;9.57;;;4.10;;
9898;SDS011;4988;49.238;6.698;2023-12-20T04:42:48;7.17;;;3.90;;
9898;SDS011;4988;49.238;6.698;2023-12-20T04:45:13;6.40;;;3.80;;
9898;SDS011;4988;49.238;6.698;2023-12-20T04:47:41;7.30;;;3.17;;
9898;SDS011;4988;49.238;6.698;2023-12-20T04:50:07;3.30;;;3.00;;
9898;SDS011;4988;49.238;6.698;2023-12-20T04:52:32;5.77;;;3.13;;
9898;SDS011;4988;49.238;6.698;2023-12-20T04:54:58;5.10;;;3.47;;
9898;SDS011;4988;49.238;6.698;2023-12-20T04:57:24;7.97;;;3.50;;
9898;SDS011;4988;49.238;6.698;2023-12-20T04:59:49;8.87;;;3.40;;
9898;SDS011;4988;49.238;6.698;2023-12-20T05:02:15;8.27;;;3.30;;
9898;SDS011;4988;49.238;6.698;2023-12-20T05:04:40;6.03;;;2.80;;
9898;SDS011;4988;49.238;6.698;2023-12-20T05:07:06;5.67;;;3.23;;
9898;SDS011;4988;49.238;6.698;2023-12-20T05:09:31;8.30;;;3.33;;
9898;SDS011;4988;49.238;6.698;2023-12-20T05:11:57;5.03;;;3.00;;
9898;SDS011;4988;49.238;6.698;2023-12-20T05:14:22;8.43;;;2.93;;
9898;SDS011;4988;49.238;6.698;2023-12-20T05:16:47;8.67;;;2.60;;
9898;SDS011;4988;49.238;6.698;2023-12-20T05:19:13;7.60;;;2.80;;
9898;SDS011;4988;49.238;6.698;2023-12-20T05:21:39;5.03;;;2.90;;
9898;SDS011;4988;49.238;6.698;2023-12-20T05:24:04;8.53;;;3.07;;
9898;SDS011;4988;49.238;6.698;2023-12-20T05:26:30;12.17;;;3.20;;
9898;SDS011;4988;49.238;6.698;2023-12-20T05:28:55;6.80;;;2.97;;
9898;SDS011;4988;49.238;6.698;2023-12-20T05:31:21;4.23;;;2.90;;
9898;SDS011;4988;49.238;6.698;2023-12-20T05:33:46;9.80;;;3.17;;
9898;SDS011;4988;49.238;6.698;2023-12-20T05:36:11;6.10;;;3.37;;
9898;SDS011;4988;49.238;6.698;2023-12-20T05:38:38;9.43;;;3.37;;
9898;SDS011;4988;49.238;6.698;2023-12-20T05:41:04;7.77;;;3.10;;
9898;SDS011;4988;49.238;6.698;2023-12-20T05:43:30;9.17;;;3.27;;
9898;SDS011;4988;49.238;6.698;2023-12-20T05:45:55;8.53;;;3.00;;
9898;SDS011;4988;49.238;6.698;2023-12-20T05:48:20;9.60;;;3.40;;
9898;SDS011;4988;49.238;6.698;2023-12-20T05:50:45;9.67;;;3.93;;
9898;SDS011;4988;49.238;6.698;2023-12-20T05:53:11;9.10;;;3.53;;
9898;SDS011;4988;49.238;6.698;2023-12-20T05:55:36;9.63;;;3.20;;
9898;SDS011;4988;49.238;6.698;2023-12-20T05:58:02;10.43;;;3.87;;
9898;SDS011;4988;49.238;6.698;2023-12-20T06:00:28;7.30;;;3.87;;
9898;SDS011;4988;49.238;6.698;2023-12-20T06:02:53;8.83;;;3.73;;
9898;SDS011;4988;49.238;6.698;2023-12-20T06:05:18;9.00;;;4.00;;
9898;SDS011;4988;49.238;6.698;2023-12-20T06:07:44;7.77;;;3.80;;
9898;SDS011;4988;49.238;6.698;2023-12-20T06:10:12;7.93;;;3.30;;
9898;SDS011;4988;49.238;6.698;2023-12-20T06:12:38;10.93;;;3.60;;
9898;SDS011;4988;49.238;6.698;2023-12-20T06:15:04;9.87;;;3.50;;
9898;SDS011;4988;49.238;6.698;2023-12-20T06:17:30;9.60;;;3.50;;
9898;SDS011;4988;49.238;6.698;2023-12-20T06:19:56;6.87;;;3.50;;
9898;SDS011;4988;49.238;6.698;2023-12-20T06:22:21;6.50;;;3.37;;
9898;SDS011;4988;49.238;6.698;2023-12-20T06:24:47;8.37;;;2.80;;
9898;SDS011;4988;49.238;6.698;2023-12-20T06:27:12;7.20;;;2.73;;
9898;SDS011;4988;49.238;6.698;2023-12-20T06:29:38;7.93;;;3.20;;
9898;SDS011;4988;49.238;6.698;2023-12-20T06:32:03;14.40;;;4.60;;
9898;SDS011;4988;49.238;6.698;2023-12-20T06:34:29;9.30;;;3.57;;
9898;SDS011;4988;49.238;6.698;2023-12-20T06:36:54;12.73;;;3.90;;
9898;SDS011;4988;49.238;6.698;2023-12-20T06:39:20;8.80;;;3.33;;
9898;SDS011;4988;49.238;6.698;2023-12-20T06:41:45;13.47;;;4.00;;
9898;SDS011;4988;49.238;6.698;2023-12-20T06:44:15;10.40;;;3.60;;
9898;SDS011;4988;49.238;6.698;2023-12-20T06:46:41;11.47;;;3.73;;
9898;SDS011;4988;49.238;6.698;2023-12-20T06:49:06;14.77;;;3.93;;
9898;SDS011;4988;49.238;6.698;2023-12-20T06:51:31;7.00;;;3.93;;
9898;SDS011;4988;49.238;6.698;2023-12-20T06:53:57;12.30;;;3.73;;
9898;SDS011;4988;49.238;6.698;2023-12-20T06:56:22;10.53;;;3.80;;
9898;SDS011;4988;49.238;6.698;2023-12-20T06:58:47;8.03;;;3.90;;
9898;SDS011;4988;49.238;6.698;2023-12-20T07:01:13;15.87;;;4.40;;
9898;SDS011;4988;49.238;6.698;2023-12-20T07:03:39;11.97;;;4.20;;
9898;SDS011;4988;49.238;6.698;2023-12-20T07:06:05;15.50;;;4.50;;
9898;SDS011;4988;49.238;6.698;2023-12-20T07:08:30;14.07;;;4.87;;
9898;SDS011;4988;49.238;6.698;2023-12-20T07:10:56;14.23;;;4.03;;
9898;SDS011;4988;49.238;6.698;2023-12-20T07:13:21;16.83;;;5.77;;
9898;SDS011;4988;49.238;6.698;2023-12-20T07:15:47;15.07;;;5.10;;
9898;SDS011;4988;49.238;6.698;2023-12-20T07:18:13;10.30;;;4.63;;
9898;SDS011;4988;49.238;6.698;2023-12-20T07:20:38;14.77;;;4.80;;
9898;SDS011;4988;49.238;6.698;2023-12-20T07:23:04;14.30;;;5.03;;
9898;SDS011;4988;49.238;6.698;2023-12-20T07:25:29;14.10;;;5.03;;
9898;SDS011;4988;49.238;6.698;2023-12-20T07:27:57;10.60;;;4.83;;
9898;SDS011;4988;49.238;6.698;2023-12-20T07:30:22;12.73;;;4.40;;
9898;SDS011;4988;49.238;6.698;2023-12-20T07:32:48;13.20;;;4.63;;
9898;SDS011;4988;49.238;6.698;2023-12-20T07:35:13;11.87;;;5.37;;
9898;SDS011;4988;49.238;6.698;2023-12-20T07:37:38;13.23;;;5.60;;
9898;SDS011;4988;49.238;6.698;2023-12-20T07:40:04;11.13;;;4.93;;
9898;SDS011;4988;49.238;6.698;2023-12-20T07:42:30;13.30;;;5.13;;
9898;SDS011;4988;49.238;6.698;2023-12-20T07:44:55;17.57;;;6.13;;
9898;SDS011;4988;49.238;6.698;2023-12-20T07:47:20;15.03;;;4.57;;
9898;SDS011;4988;49.238;6.698;2023-12-20T07:49:47;23.17;;;5.90;;
9898;SDS011;4988;49.238;6.698;2023-12-20T07:52:19;10.43;;;5.40;;
9898;SDS011;4988;49.238;6.698;2023-12-20T07:54:44;13.77;;;5.10;;
9898;SDS011;4988;49.238;6.698;2023-12-20T07:57:10;14.97;;;4.80;;
9898;SDS011;4988;49.238;6.698;2023-12-20T07:59:36;14.53;;;6.20;;
9898;SDS011;4988;49.238;6.698;2023-12-20T08:02:01;13.53;;;5.00;;
9898;SDS011;4988;49.238;6.698;2023-12-20T08:04:27;22.10;;;5.13;;
9898;SDS011;4988;49.238;6.698;2023-12-20T08:06:52;17.83;;;5.23;;
9898;SDS011;4988;49.238;6.698;2023-12-20T08:09:17;17.07;;;5.47;;
9898;SDS011;4988;49.238;6.698;2023-12-20T08:11:46;18.00;;;5.40;;
9898;SDS011;4988;49.238;6.698;2023-12-20T08:14:12;13.13;;;5.53;;
9898;SDS011;4988;49.238;6.698;2023-12-20T08:16:37;17.53;;;5.97;;
9898;SDS011;4988;49.238;6.698;2023-12-20T08:19:03;15.20;;;5.73;;
9898;SDS011;4988;49.238;6.698;2023-12-20T08:21:28;18.83;;;5.83;;
9898;SDS011;4988;49.238;6.698;2023-12-20T08:23:53;13.43;;;5.27;;
9898;SDS011;4988;49.238;6.698;2023-12-20T08:26:19;14.10;;;5.97;;
9898;SDS011;4988;49.238;6.698;2023-12-20T08:28:49;13.43;;;6.20;;
9898;SDS011;4988;49.238;6.698;2023-12-20T08:31:15;17.87;;;6.07;;
9898;SDS011;4988;49.238;6.698;2023-12-20T08:33:42;19.73;;;5.93;;
9898;SDS011;4988;49.238;6.698;2023-12-20T08:36:11;17.83;;;6.17;;
9898;SDS011;4988;49.238;6.698;2023-12-20T08:38:37;14.03;;;5.60;;
9898;SDS011;4988;49.238;6.698;2023-12-20T08:41:02;15.63;;;6.30;;
9898;SDS011;4988;49.238;6.698;2023-12-20T08:43:30;18.27;;;6.37;;
9898;SDS011;4988;49.238;6.698;2023-12-20T08:45:55;18.93;;;6.30;;
9898;SDS011;4988;49.238;6.698;2023-12-20T08:48:21;17.73;;;7.83;;
9898;SDS011;4988;49.238;6.698;2023-12-20T08:50:46;17.17;;;5.97;;
9898;SDS011;4988;49.238;6.698;2023-12-20T08:53:13;18.80;;;6.83;;
9898;SDS011;4988;49.238;6.698;2023-12-20T08:55:40;23.20;;;7.17;;
9898;SDS011;4988;49.238;6.698;2023-12-20T08:58:06;22.67;;;6.80;;
9898;SDS011;4988;49.238;6.698;2023-12-20T09:00:33;20.73;;;7.80;;
9898;SDS011;4988;49.238;6.698;2023-12-20T09:02:58;23.07;;;6.73;;
9898;SDS011;4988;49.238;6.698;2023-12-20T09:05:24;18.07;;;6.13;;
9898;SDS011;4988;49.238;6.698;2023-12-20T09:07:49;17.93;;;5.90;;
9898;SDS011;4988;49.238;6.698;2023-12-20T09:10:15;17.07;;;5.80;;
9898;SDS011;4988;49.238;6.698;2023-12-20T09:12:40;16.20;;;7.10;;
9898;SDS011;4988;49.238;6.698;2023-12-20T09:15:07;16.67;;;6.53;;
9898;SDS011;4988;49.238;6.698;2023-12-20T09:17:33;22.83;;;6.63;;
9898;SDS011;4988;49.238;6.698;2023-12-20T09:19:58;12.10;;;5.03;;
9898;SDS011;4988;49.238;6.698;2023-12-20T09:22:25;20.53;;;8.03;;
9898;SDS011;4988;49.238;6.698;2023-12-20T09:24:50;16.03;;;6.23;;
9898;SDS011;4988;49.238;6.698;2023-12-20T09:27:16;20.90;;;6.47;;
9898;SDS011;4988;49.238;6.698;2023-12-20T09:29:41;17.87;;;6.73;;
9898;SDS011;4988;49.238;6.698;2023-12-20T09:32:06;20.40;;;8.70;;
9898;SDS011;4988;49.238;6.698;2023-12-20T09:34:32;27.40;;;7.73;;
9898;SDS011;4988;49.238;6.698;2023-12-20T09:36:57;11.33;;;5.67;;
9898;SDS011;4988;49.238;6.698;2023-12-20T09:39:23;19.30;;;5.73;;
9898;SDS011;4988;49.238;6.698;2023-12-20T09:41:54;16.93;;;6.80;;
9898;SDS011;4988;49.238;6.698;2023-12-20T09:44:26;18.93;;;6.23;;
9898;SDS011;4988;49.238;6.698;2023-12-20T09:46:52;15.53;;;5.67;;
9898;SDS011;4988;49.238;6.698;2023-12-20T09:49:19;17.83;;;6.03;;
9898;SDS011;4988;49.238;6.698;2023-12-20T09:51:46;18.87;;;6.80;;
9898;SDS011;4988;49.238;6.698;2023-12-20T09:54:14;23.20;;;6.43;;
9898;SDS011;4988;49.238;6.698;2023-12-20T09:56:40;18.03;;;6.23;;
9898;SDS011;4988;49.238;6.698;2023-12-20T09:59:05;15.20;;;6.00;;
9898;SDS011;4988;49.238;6.698;2023-12-20T10:01:31;17.20;;;5.70;;
9898;SDS011;4988;49.238;6.698;2023-12-20T10:03:57;16.73;;;6.27;;
9898;SDS011;4988;49.238;6.698;2023-12-20T10:06:25;16.37;;;5.80;;
9898;SDS011;4988;49.238;6.698;2023-12-20T10:08:50;19.50;;;5.47;;
9898;SDS011;4988;49.238;6.698;2023-12-20T10:11:15;29.13;;;8.10;;
9898;SDS011;4988;49.238;6.698;2023-12-20T10:13:43;16.40;;;5.50;;
9898;SDS011;4988;49.238;6.698;2023-12-20T10:16:08;17.80;;;6.40;;
9898;SDS011;4988;49.238;6.698;2023-12-20T10:18:34;20.27;;;5.20;;
9898;SDS011;4988;49.238;6.698;2023-12-20T10:21:00;18.73;;;5.57;;
9898;SDS011;4988;49.238;6.698;2023-12-20T10:23:25;12.57;;;4.60;;
9898;SDS011;4988;49.238;6.698;2023-12-20T10:25:57;12.43;;;4.90;;
9898;SDS011;4988;49.238;6.698;2023-12-20T10:28:23;14.33;;;5.43;;
9898;SDS011;4988;49.238;6.698;2023-12-20T10:30:52;18.47;;;5.57;;
9898;SDS011;4988;49.238;6.698;2023-12-20T10:33:25;12.23;;;4.27;;
9898;SDS011;4988;49.238;6.698;2023-12-20T10:35:51;13.40;;;4.10;;
9898;SDS011;4988;49.238;6.698;2023-12-20T10:38:17;16.17;;;4.67;;
9898;SDS011;4988;49.238;6.698;2023-12-20T10:40:43;12.70;;;4.77;;
9898;SDS011;4988;49.238;6.698;2023-12-20T10:43:10;11.90;;;5.43;;
9898;SDS011;4988;49.238;6.698;2023-12-20T10:45:36;15.13;;;5.20;;
9898;SDS011;4988;49.238;6.698;2023-12-20T10:48:02;12.07;;;4.60;;
9898;SDS011;4988;49.238;6.698;2023-12-20T10:50:28;13.27;;;4.20;;
9898;SDS011;4988;49.238;6.698;2023-12-20T10:52:55;10.40;;;4.43;;
9898;SDS011;4988;49.238;6.698;2023-12-20T10:55:24;16.83;;;4.70;;
9898;SDS011;4988;49.238;6.698;2023-12-20T10:57:54;15.37;;;4.97;;
9898;SDS011;4988;49.238;6.698;2023-12-20T11:00:26;12.80;;;5.50;;
9898;SDS011;4988;49.238;6.698;2023-12-20T11:02:52;13.53;;;4.77;;
9898;SDS011;4988;49.238;6.698;2023-12-20T11:11:07;12.73;;;4.60;;
9898;SDS011;4988;49.238;6.698;2023-12-20T11:13:40;13.70;;;5.07;;
9898;SDS011;4988;49.238;6.698;2023-12-20T11:16:13;16.07;;;4.47;;
9898;SDS011;4988;49.238;6.698;2023-12-20T11:18:40;19.03;;;5.30;;
9898;SDS011;4988;49.238;6.698;2023-12-20T11:21:05;12.87;;;4.27;;
9898;SDS011;4988;49.238;6.698;2023-12-20T11:23:35;20.03;;;4.77;;
9898;SDS011;4988;49.238;6.698;2023-12-20T11:26:01;12.20;;;4.13;;
9898;SDS011;4988;49.238;6.698;2023-12-20T11:28:27;12.93;;;5.07;;
9898;SDS011;4988;49.238;6.698;2023-12-20T11:30:55;23.37;;;5.23;;
9898;SDS011;4988;49.238;6.698;2023-12-20T11:33:25;11.13;;;4.67;;
9898;SDS011;4988;49.238;6.698;2023-12-20T11:35:52;16.73;;;4.40;;
9898;SDS011;4988;49.238;6.698;2023-12-20T11:38:20;12.53;;;4.90;;
9898;SDS011;4988;49.238;6.698;2023-12-20T11:40:48;10.17;;;4.20;;
9898;SDS011;4988;49.238;6.698;2023-12-20T11:43:29;16.70;;;4.43;;
9898;SDS011;4988;49.238;6.698;2023-12-20T11:46:04;10.57;;;4.20;;
9898;SDS011;4988;49.238;6.698;2023-12-20T11:48:30;22.20;;;4.97;;
9898;SDS011;4988;49.238;6.698;2023-12-20T11:50:56;14.80;;;4.50;;
9898;SDS011;4988;49.238;6.698;2023-12-20T11:53:22;12.93;;;4.33;;
9898;SDS011;4988;49.238;6.698;2023-12-20T11:55:50;15.00;;;4.27;;
9898;SDS011;4988;49.238;6.698;2023-12-20T11:58:16;16.20;;;4.57;;
9898;SDS011;4988;49.238;6.698;2023-12-20T12:00:42;11.00;;;4.20;;
9898;SDS011;4988;49.238;6.698;2023-12-20T12:03:14;12.30;;;3.80;;
9898;SDS011;4988;49.238;6.698;2023-12-20T12:05:39;14.27;;;4.47;;
9898;SDS011;4988;49.238;6.698;2023-12-20T12:08:05;13.13;;;3.73;;
9898;SDS011;4988;49.238;6.698;2023-12-20T12:10:30;13.27;;;3.80;;
9898;SDS011;4988;49.238;6.698;2023-12-20T12:12:56;12.83;;;3.80;;
9898;SDS011;4988;49.238;6.698;2023-12-20T12:15:21;9.33;;;3.70;;
9898;SDS011;4988;49.238;6.698;2023-12-20T12:17:56;10.23;;;3.63;;
9898;SDS011;4988;49.238;6.698;2023-12-20T12:20:22;12.23;;;3.33;;
9898;SDS011;4988;49.238;6.698;2023-12-20T12:22:58;15.73;;;3.70;;
9898;SDS011;4988;49.238;6.698;2023-12-20T12:25:28;18.07;;;4.37;;
9898;SDS011;4988;49.238;6.698;2023-12-20T12:27:55;15.63;;;4.23;;
9898;SDS011;4988;49.238;6.698;2023-12-20T12:30:21;17.43;;;4.03;;
9898;SDS011;4988;49.238;6.698;2023-12-20T12:32:46;17.27;;;3.90;;
9898;SDS011;4988;49.238;6.698;2023-12-20T12:35:11;11.20;;;3.63;;
9898;SDS011;4988;49.238;6.698;2023-12-20T12:37:40;10.40;;;3.37;;
9898;SDS011;4988;49.238;6.698;2023-12-20T12:40:11;14.93;;;4.13;;
9898;SDS011;4988;49.238;6.698;2023-12-20T12:42:38;11.13;;;3.67;;
9898;SDS011;4988;49.238;6.698;2023-12-20T12:45:04;15.17;;;5.63;;
9898;SDS011;4988;49.238;6.698;2023-12-20T12:47:30;20.80;;;7.43;;
9898;SDS011;4988;49.238;6.698;2023-12-20T12:49:56;22.70;;;5.70;;
9898;SDS011;4988;49.238;6.698;2023-12-20T12:52:21;19.13;;;4.57;;
9898;SDS011;4988;49.238;6.698;2023-12-20T12:54:47;14.67;;;4.63;;
9898;SDS011;4988;49.238;6.698;2023-12-20T12:57:13;14.57;;;4.27;;
9898;SDS011;4988;49.238;6.698;2023-12-20T12:59:39;18.47;;;5.97;;
9898;SDS011;4988;49.238;6.698;2023-12-20T13:02:05;22.80;;;6.00;;
9898;SDS011;4988;49.238;6.698;2023-12-20T13:04:30;12.33;;;4.67;;
9898;SDS011;4988;49.238;6.698;2023-12-20T13:06:56;14.40;;;4.63;;
9898;SDS011;4988;49.238;6.698;2023-12-20T13:09:22;16.60;;;5.00;;
9898;SDS011;4988;49.238;6.698;2023-12-20T13:11:48;16.27;;;5.10;;
9898;SDS011;4988;49.238;6.698;2023-12-20T13:14:13;15.20;;;5.50;;
9898;SDS011;4988;49.238;6.698;2023-12-20T13:16:40;13.87;;;4.60;;
9898;SDS011;4988;49.238;6.698;2023-12-20T13:19:06;15.27;;;4.43;;
9898;SDS011;4988;49.238;6.698;2023-12-20T13:21:31;20.63;;;4.83;;
9898;SDS011;4988;49.238;6.698;2023-12-20T13:23:57;16.97;;;5.03;;
9898;SDS011;4988;49.238;6.698;2023-12-20T13:26:22;20.03;;;5.70;;
9898;SDS011;4988;49.238;6.698;2023-12-20T13:28:47;17.37;;;4.50;;
9898;SDS011;4988;49.238;6.698;2023-12-20T13:31:13;13.43;;;4.80;;
9898;SDS011;4988;49.238;6.698;2023-12-20T13:33:38;13.90;;;4.47;;
9898;SDS011;4988;49.238;6.698;2023-12-20T13:36:04;20.07;;;4.23;;
9898;SDS011;4988;49.238;6.698;2023-12-20T13:38:30;16.93;;;4.30;;
9898;SDS011;4988;49.238;6.698;2023-12-20T13:40:55;15.20;;;4.57;;
9898;SDS011;4988;49.238;6.698;2023-12-20T13:43:20;12.70;;;4.30;;
9898;SDS011;4988;49.238;6.698;2023-12-20T13:45:47;12.03;;;3.67;;
9898;SDS011;4988;49.238;6.698;2023-12-20T13:48:13;14.70;;;4.90;;
9898;SDS011;4988;49.238;6.698;2023-12-20T13:50:38;20.73;;;5.20;;
9898;SDS011;4988;49.238;6.698;2023-12-20T13:53:03;19.07;;;5.37;;
9898;SDS011;4988;49.238;6.698;2023-12-20T13:55:29;18.93;;;4.70;;
9898;SDS011;4988;49.238;6.698;2023-12-20T13:57:55;22.60;;;4.53;;
9898;SDS011;4988;49.238;6.698;2023-12-20T14:00:21;18.63;;;5.20;;
9898;SDS011;4988;49.238;6.698;2023-12-20T14:02:47;18.77;;;4.63;;
9898;SDS011;4988;49.238;6.698;2023-12-20T14:05:13;12.60;;;4.47;;
9898;SDS011;4988;49.238;6.698;2023-12-20T14:07:42;23.10;;;6.63;;
9898;SDS011;4988;49.238;6.698;2023-12-20T14:10:09;12.30;;;4.10;;
9898;SDS011;4988;49.238;6.698;2023-12-20T14:12:36;17.30;;;5.47;;
9898;SDS011;4988;49.238;6.698;2023-12-20T14:15:03;18.30;;;5.03;;
9898;SDS011;4988;49.238;6.698;2023-12-20T14:17:28;15.27;;;5.30;;
9898;SDS011;4988;49.238;6.698;2023-12-20T14:19:54;22.37;;;5.73;;
9898;SDS011;4988;49.238;6.698;2023-12-20T14:22:19;23.83;;;6.17;;
9898;SDS011;4988;49.238;6.698;2023-12-20T14:24:45;18.70;;;6.10;;
9898;SDS011;4988;49.238;6.698;2023-12-20T14:27:10;17.73;;;5.47;;
9898;SDS011;4988;49.238;6.698;2023-12-20T14:29:36;19.60;;;5.57;;
9898;SDS011;4988;49.238;6.698;2023-12-20T14:32:02;27.63;;;6.00;;
9898;SDS011;4988;49.238;6.698;2023-12-20T14:34:28;14.70;;;5.10;;
9898;SDS011;4988;49.238;6.698;2023-12-20T14:36:54;18.83;;;5.10;;
9898;SDS011;4988;49.238;6.698;2023-12-20T14:39:19;16.60;;;5.17;;
9898;SDS011;4988;49.238;6.698;2023-12-20T14:41:45;19.50;;;6.37;;
9898;SDS011;4988;49.238;6.698;2023-12-20T14:44:10;16.87;;;5.63;;
9898;SDS011;4988;49.238;6.698;2023-12-20T14:46:35;20.10;;;6.00;;
9898;SDS011;4988;49.238;6.698;2023-12-20T14:49:01;18.07;;;5.03;;
9898;SDS011;4988;49.238;6.698;2023-12-20T14:51:29;17.63;;;5.90;;
9898;SDS011;4988;49.238;6.698;2023-12-20T14:53:54;18.93;;;5.80;;
9898;SDS011;4988;49.238;6.698;2023-12-20T14:56:19;21.17;;;5.97;;
9898;SDS011;4988;49.238;6.698;2023-12-20T14:58:45;26.90;;;5.60;;
9898;SDS011;4988;49.238;6.698;2023-12-20T15:01:11;15.97;;;6.10;;
9898;SDS011;4988;49.238;6.698;2023-12-20T15:03:36;21.57;;;5.70;;